Hoxeyville, Michigan
Current Conditions -  °F | °C
As of 5:35 AM on Thursday 27 Nov 2014 (Local Time) from KCAD Reporting Station
Light Snow Light Snow  
Wind Chill: 24°   Ceiling: 2200
Heat Index: 24°   Visibility: 2.5mi
Dew Point: 22°   Wind: 3mph
Humidity: 91%   Direction: 290°WNW
Pressure: 30.09"   Gusts: NA
Location:  44.2433°N, 85.5328°W
Report Text: KCAD 271035Z AUTO 29003KT 2 1/2SM -SN SCT017 BKN022 OVC032 M04/M05 A3009 RMK AO2 T10431056
Loading
Personal Weather Stations






























Interactive Weather Map New forecast layout! Learn more

10-Day Weather Forecast

Advertisements
Track Severe Weather on mobile